KJAX/JAX METAR and TAF weather

Enter ICAO airport designator
Station Type Date Time Source
KJAX METAR 2023/05/31 21:56 UTC NOAA

KJAX 312156Z 06015KT 10SM SCT028 SCT045 BKN180 BKN250 26/19 A2995 RMK AO2 SLP142 T02610194


Station Type Date Time Source
KJAX Decoded METAR 2023/05/31 21:56 UTC NOAA

JACKSONVILLE INTERNATIONAL, FL, United States (KJAX) 30-30N 81-42W 7M
May 31, 2023 - 05:56 PM EDT / 2023.05.31 2156 UTC
Wind: from the ENE (060 degrees) at 17 MPH (15 KT):0
Visibility: 10 mile(s):0
Sky conditions: mostly cloudy
Temperature: 79.0 F (26.1 C)
Dew Point: 66.9 F (19.4 C)
Relative Humidity: 66%
Pressure (altimeter): 29.95 in. Hg (1014 hPa)
ob: KJAX 312156Z 06015KT 10SM SCT028 SCT045 BKN180 BKN250 26/19 A2995 RMK AO2 SLP142 T02610194
cycle: 22

Station Type Date Time Source
KJAX TAF 2023/05/31 22:36 UTC NOAA

TAF
AMD KJAX 312134Z 3122/0118 07012G20KT P6SM SCT025 OVC100
TEMPO 3122/3124 6SM SHRA BKN025
FM010000 05005KT P6SM SCT050 OVC100
FM011400 06011KT P6SM VCSH SCT025 OVC050

Example: see airport list